Terminal Aerodrome Forecast
Issued by NWS Wakefield, VA

Home | Current Version | Previous Version | Text Only | Print | Product List | Glossary On
Versions: 1 2 3 4 5 6 7 8 9 10 11 12 13 14 15 16 17 18 19 20 21 22 23 24 25 26 27 28 29 30 31 32
000
FTUS41 KAKQ 240526
TAFECG
TAF
KECG 240526Z 2406/2506 18004KT 1/4SM FG BKN002
      TEMPO 2406/2410 1/2SM FG BKN003
     FM241200 22006KT 2SM BR BKN002
     FM241500 23009KT P6SM BKN015
     FM241700 23010KT P6SM SCT025
     FM242100 19007KT P6SM SCT250=

USA.gov is the U.S. government's official web portal to all federal, state and local government web resources and services.